createdAt,value
2019-01-02T20:54:58.495Z,2.40
2019-01-02T20:57:29.509Z,2.70
2019-01-02T21:00:00.811Z,2.60
2019-01-02T21:02:31.278Z,2.50
2019-01-02T21:05:01.844Z,2.40
2019-01-02T21:07:32.365Z,2.40
2019-01-02T21:10:02.918Z,2.40
2019-01-02T21:12:33.457Z,2.30
2019-01-02T21:15:04.071Z,2.20
2019-01-02T21:17:34.849Z,2.20
2019-01-02T21:20:05.867Z,2.10
2019-01-02T21:22:36.363Z,2.00
2019-01-02T21:25:07.278Z,2.00
2019-01-02T21:27:38.044Z,1.90
2019-01-02T21:30:09.607Z,1.80
2019-01-02T21:32:40.119Z,1.80
2019-01-02T21:35:10.802Z,1.70
2019-01-02T21:37:41.319Z,1.70
2019-01-02T21:40:31.089Z,1.60
2019-01-02T21:43:01.592Z,1.60
2019-01-02T21:45:32.057Z,1.60
2019-01-02T21:48:02.565Z,1.60
2019-01-02T21:50:33.124Z,1.50
2019-01-02T21:53:03.617Z,1.50
2019-01-02T21:55:34.076Z,1.50
2019-01-02T21:58:04.578Z,1.40
2019-01-02T22:00:37.174Z,1.40
2019-01-02T22:03:08.861Z,1.30
2019-01-02T22:05:43.677Z,1.30
2019-01-02T22:08:14.413Z,1.30
2019-01-02T22:10:44.896Z,1.20
2019-01-02T22:13:15.381Z,1.00
2019-01-02T22:15:46.149Z,1.20
2019-01-02T22:18:16.612Z,1.20
2019-01-02T22:20:47.096Z,1.20
2019-01-02T22:23:17.910Z,1.10
2019-01-02T22:25:48.886Z,1.10
2019-01-02T22:28:19.416Z,1.00
2019-01-02T22:30:49.871Z,1.00
2019-01-02T22:33:20.865Z,1.00
2019-01-02T22:35:51.416Z,1.00
2019-01-02T22:38:21.923Z,1.00
2019-01-02T22:40:52.492Z,1.00
2019-01-02T22:43:23.024Z,1.00
2019-01-02T22:45:53.461Z,1.00
2019-01-02T22:48:24.106Z,1.00
2019-01-02T22:50:54.592Z,0.90
2019-01-02T22:53:25.361Z,0.90
2019-01-02T22:55:55.826Z,0.90
2019-01-02T22:58:26.351Z,0.90
2019-01-02T23:01:07.707Z,0.80
2019-01-02T23:04:03.460Z,0.80
2019-01-02T23:06:58.874Z,0.80
2019-01-02T23:09:47.249Z,0.80
2019-01-02T23:12:42.533Z,0.70
2019-01-02T23:15:31.174Z,0.70
2019-01-02T23:18:20.678Z,0.70
2019-01-02T23:21:13.474Z,0.70
2019-01-02T23:24:06.161Z,0.60
2019-01-02T23:26:54.427Z,0.60
2019-01-02T23:29:59.137Z,0.60
2019-01-02T23:32:48.812Z,0.60
2019-01-02T23:35:38.377Z,0.50
2019-01-02T23:38:26.038Z,0.60
2019-01-02T23:41:21.614Z,0.60
2019-01-02T23:44:11.282Z,0.60
2019-01-02T23:47:00.873Z,0.60
2019-01-02T23:49:56.587Z,0.60
2019-01-02T23:52:56.604Z,0.50
2019-01-02T23:55:46.393Z,0.50
2019-01-02T23:58:48.119Z,0.50
